Time;durP1;ratioP1;P1;durP2;ratioP2;P2;SDS_P1;SDS_P2;PMS_P1;PMS_P2;Temp;Humidity;BMP_temperature;BMP_pressure;BME280_temperature;BME280_humidity;BME280_pressure;Samples;Min_cycle;Max_cycle;Signal;HPM_P1;HPM_P2
2023/10/25 00:01:05;;;;;;;9.30;4.47;;;9.30;99.90;;;;;;4998366;28;20023;-89
2023/10/25 00:03:31;;;;;;;5.97;3.83;;;9.30;99.90;;;;;;5000404;28;20018;-87
2023/10/25 00:05:57;;;;;;;7.32;4.25;;;10.40;99.90;;;;;;4986963;28;20046;-88
2023/10/25 00:08:22;;;;;;;5.97;4.13;;;8.10;99.90;;;;;;5001657;28;20019;-87
2023/10/25 00:10:48;;;;;;;7.60;3.70;;;;;;;;;;4998755;28;20047;-89
2023/10/25 00:13:14;;;;;;;8.57;4.03;;;9.50;99.90;;;;;;4985866;28;20102;-87
2023/10/25 00:15:40;;;;;;;5.97;3.60;;;;;;;;;;5000835;28;20054;-86
2023/10/25 00:18:06;;;;;;;6.13;3.80;;;;;;;;;;4982796;28;20019;-88
2023/10/25 00:20:32;;;;;;;9.25;4.45;;;9.50;99.90;;;;;;4988133;28;20106;-87
2023/10/25 00:22:58;;;;;;;10.18;4.95;;;10.30;99.90;;;;;;5004253;28;20041;-89
2023/10/25 00:25:23;;;;;;;10.70;5.20;;;9.80;99.90;;;;;;4982501;28;20018;-88
2023/10/25 00:27:49;;;;;;;12.23;5.00;;;11.70;99.90;;;;;;4981795;28;20061;-87
2023/10/25 00:30:15;;;;;;;8.45;4.85;;;9.50;99.90;;;;;;4989182;28;20011;-86
2023/10/25 00:32:42;;;;;;;9.18;4.35;;;;;;;;;;5001244;28;20200;-87
2023/10/25 00:35:08;;;;;;;7.43;3.72;;;9.50;99.90;;;;;;4988248;28;20041;-88
2023/10/25 00:37:34;;;;;;;9.23;4.78;;;;;;;;;;4993172;28;20035;-87
2023/10/25 00:40:00;;;;;;;12.73;5.20;;;;;;;;;;4970383;28;20011;-88
2023/10/25 00:42:26;;;;;;;13.80;4.32;;;9.50;99.90;;;;;;4983651;28;20023;-88
2023/10/25 00:44:51;;;;;;;6.97;4.25;;;9.50;99.90;;;;;;4987289;28;20022;-87
2023/10/25 00:47:17;;;;;;;7.50;4.30;;;;;;;;;;4978563;28;20026;-87
2023/10/25 00:49:43;;;;;;;8.10;4.00;;;9.50;99.90;;;;;;4971633;28;20041;-88
2023/10/25 00:52:09;;;;;;;8.27;3.95;;;9.50;99.90;;;;;;4976500;28;20019;-86
2023/10/25 00:54:36;;;;;;;8.90;4.15;;;9.50;99.90;;;;;;4987563;28;20015;-87
2023/10/25 00:57:02;;;;;;;10.93;5.50;;;11.70;99.90;;;;;;5004192;28;20066;-87
2023/10/25 00:59:29;;;;;;;8.65;4.60;;;9.50;99.90;;;;;;4999006;28;20010;-87
2023/10/25 01:01:56;;;;;;;6.70;4.20;;;10.60;99.90;;;;;;4985764;28;20047;-86
2023/10/25 01:04:22;;;;;;;11.10;4.13;;;9.50;99.90;;;;;;4983290;28;20038;-87
2023/10/25 01:06:48;;;;;;;5.72;3.95;;;9.40;99.90;;;;;;4991655;28;20090;-85
2023/10/25 01:09:13;;;;;;;6.72;3.80;;;9.40;99.90;;;;;;5002384;28;20031;-87
2023/10/25 01:11:40;;;;;;;9.40;4.65;;;;;;;;;;4990399;28;20049;-86
2023/10/25 01:14:05;;;;;;;8.32;4.07;;;9.40;99.90;;;;;;4987960;28;20015;-88
2023/10/25 01:16:31;;;;;;;8.07;4.15;;;9.30;99.90;;;;;;4985499;28;20041;-86
2023/10/25 01:18:57;;;;;;;9.38;4.30;;;;;;;;;;4992267;28;20027;-86
2023/10/25 01:21:22;;;;;;;7.85;4.22;;;9.20;99.90;;;;;;4985768;28;20019;-89
2023/10/25 01:23:55;;;;;;;7.15;4.30;;;9.20;99.90;;;;;;4969082;28;20025;-88
2023/10/25 01:26:20;;;;;;;8.20;4.10;;;11.10;99.90;;;;;;4987864;28;20060;-86
2023/10/25 01:28:46;;;;;;;8.32;4.05;;;9.30;99.90;;;;;;5006467;28;20083;-89
2023/10/25 01:31:12;;;;;;;8.30;4.97;;;;;;;;;;4986269;28;20025;-87
2023/10/25 01:33:37;;;;;;;8.27;4.55;;;9.30;99.90;;;;;;4984515;28;20046;-86
2023/10/25 01:36:03;;;;;;;9.98;6.70;;;9.30;99.90;;;;;;4984971;28;20030;-88
2023/10/25 01:38:29;;;;;;;9.18;4.68;;;;;;;;;;4992480;28;20014;-86
2023/10/25 01:40:55;;;;;;;9.48;5.63;;;9.30;99.90;;;;;;4997321;28;20014;-89
2023/10/25 01:43:21;;;;;;;7.97;5.30;;;9.20;99.90;;;;;;5000339;28;20026;-87
2023/10/25 01:45:46;;;;;;;8.63;4.82;;;11.80;99.90;;;;;;4988873;28;20024;-89
2023/10/25 01:48:12;;;;;;;9.15;5.28;;;9.50;99.90;;;;;;4997527;28;20044;-85
2023/10/25 01:50:38;;;;;;;10.30;5.30;;;;;;;;;;4993688;28;20023;-88
2023/10/25 01:53:04;;;;;;;10.93;5.95;;;;;;;;;;5006079;28;20051;-87
2023/10/25 01:55:30;;;;;;;9.82;6.05;;;9.20;99.90;;;;;;5006477;28;20090;-89
2023/10/25 01:57:56;;;;;;;9.93;5.13;;;;;;;;;;5009952;28;20049;-88
2023/10/25 02:00:21;;;;;;;10.15;5.38;;;9.20;99.90;;;;;;4996754;28;20018;-87
2023/10/25 02:02:47;;;;;;;11.75;4.55;;;;;;;;;;4972868;28;20033;-87
2023/10/25 02:05:13;;;;;;;10.00;4.97;;;9.20;99.90;;;;;;4994245;28;20883;-87
2023/10/25 02:07:39;;;;;;;9.70;5.50;;;;;;;;;;4997607;28;20090;-87
2023/10/25 02:10:05;;;;;;;7.78;4.57;;;9.10;99.90;;;;;;4998614;28;20025;-88
2023/10/25 02:12:31;;;;;;;8.25;4.47;;;9.00;99.90;;;;;;5012137;28;20037;-87
2023/10/25 02:14:57;;;;;;;8.65;4.43;;;;;;;;;;4984902;28;20090;-88
2023/10/25 02:17:23;;;;;;;8.82;4.68;;;;;;;;;;5006208;28;20109;-89
2023/10/25 02:19:49;;;;;;;8.98;5.00;;;;;;;;;;4990076;28;20018;-85
2023/10/25 02:22:14;;;;;;;9.35;4.68;;;8.90;99.90;;;;;;4995889;28;20038;-87
2023/10/25 02:24:40;;;;;;;7.68;4.47;;;8.80;99.90;;;;;;4991266;28;20045;-88
2023/10/25 02:27:05;;;;;;;8.30;4.80;;;8.80;99.90;;;;;;5014066;28;20014;-86
2023/10/25 02:29:34;;;;;;;12.15;5.30;;;;;;;;;;5010990;28;20021;-87
2023/10/25 02:32:01;;;;;;;9.05;4.65;;;8.70;99.90;;;;;;4990331;28;20046;-88
2023/10/25 02:34:26;;;;;;;8.85;4.22;;;8.70;99.90;;;;;;4991615;28;20046;-88
2023/10/25 02:36:52;;;;;;;11.02;5.10;;;10.50;99.90;;;;;;5008804;28;20030;-87
2023/10/25 02:39:18;;;;;;;10.48;5.63;;;;;;;;;;4995332;28;20015;-87
2023/10/25 02:41:44;;;;;;;8.50;4.50;;;;;;;;;;5005773;28;20042;-88
2023/10/25 02:44:10;;;;;;;9.70;5.55;;;8.60;99.90;;;;;;4983255;28;20086;-88
2023/10/25 02:46:36;;;;;;;11.13;5.57;;;8.60;99.90;;;;;;5004454;28;20076;-88
2023/10/25 02:49:02;;;;;;;9.95;6.45;;;8.60;99.90;;;;;;5011338;28;20319;-87
2023/10/25 02:51:28;;;;;;;12.75;6.60;;;8.60;99.90;;;;;;4987782;28;20007;-87
2023/10/25 02:53:54;;;;;;;13.75;7.93;;;8.50;99.90;;;;;;5005290;28;20044;-87
2023/10/25 02:56:20;;;;;;;13.55;7.22;;;;;;;;;;4987258;28;20058;-89
2023/10/25 02:58:46;;;;;;;10.88;6.38;;;8.50;99.90;;;;;;4979595;28;20038;-86
2023/10/25 03:01:24;;;;;;;16.90;7.78;;;8.50;99.90;;;;;;4999064;28;20022;-86
2023/10/25 03:03:51;;;;;;;13.55;7.80;;;8.80;99.90;;;;;;4984919;28;20037;-87
2023/10/25 03:06:16;;;;;;;12.00;7.15;;;8.40;99.90;;;;;;4983369;28;20027;-87
2023/10/25 03:08:42;;;;;;;11.55;7.13;;;8.40;99.90;;;;;;4983943;28;20082;-89
2023/10/25 03:11:08;;;;;;;10.57;6.70;;;8.40;99.90;;;;;;4984087;28;20030;-87
2023/10/25 03:13:33;;;;;;;16.35;8.15;;;8.40;99.90;;;;;;4985049;28;20026;-88
2023/10/25 03:15:59;;;;;;;17.95;8.23;;;;;;;;;;4979657;28;20038;-88
2023/10/25 03:18:25;;;;;;;17.58;7.72;;;;;;;;;;4975270;28;20026;-84
2023/10/25 03:20:51;;;;;;;12.10;7.43;;;8.30;99.90;;;;;;4988706;28;20033;-88
2023/10/25 03:23:17;;;;;;;11.13;6.82;;;8.30;99.90;;;;;;5000392;28;20027;-88
2023/10/25 03:25:43;;;;;;;11.32;6.88;;;;;;;;;;4986320;28;20019;-89
2023/10/25 03:28:08;;;;;;;13.50;6.93;;;8.30;99.90;;;;;;4998991;28;20026;-87
2023/10/25 03:30:36;;;;;;;11.65;6.65;;;8.20;99.90;;;;;;4986533;28;20047;-87
2023/10/25 03:33:01;;;;;;;11.07;6.35;;;8.30;99.90;;;;;;4987801;28;20015;-87
2023/10/25 03:35:27;;;;;;;10.13;6.13;;;;;;;;;;4984340;28;20035;-87
2023/10/25 03:37:53;;;;;;;10.80;6.13;;;8.20;99.90;;;;;;4982858;28;20034;-89
2023/10/25 03:40:19;;;;;;;11.40;6.18;;;8.10;99.90;;;;;;4982379;28;20029;-86
2023/10/25 03:42:48;;;;;;;9.02;5.50;;;8.20;99.90;;;;;;4978473;28;20050;-88
2023/10/25 03:45:13;;;;;;;9.77;5.63;;;8.20;99.90;;;;;;4996534;28;20023;-87
2023/10/25 03:47:39;;;;;;;13.00;6.00;;;;;;;;;;4982745;28;20023;-88
2023/10/25 03:50:06;;;;;;;8.70;5.35;;;8.20;99.90;;;;;;4979175;28;20045;-87
2023/10/25 03:52:32;;;;;;;11.38;5.18;;;8.10;99.90;;;;;;4985602;28;20038;-88
2023/10/25 03:54:58;;;;;;;9.68;5.15;;;8.10;99.90;;;;;;4985547;28;20022;-87
2023/10/25 03:57:23;;;;;;;8.07;4.90;;;8.10;99.90;;;;;;4986712;28;20046;-87
2023/10/25 03:59:49;;;;;;;9.32;4.65;;;;;;;;;;4978570;28;20023;-87
2023/10/25 04:02:15;;;;;;;8.43;4.90;;;;;;;;;;4980795;28;20038;-86
2023/10/25 04:04:41;;;;;;;14.20;4.53;;;;;;;;;;4985105;28;20034;-88
2023/10/25 04:07:08;;;;;;;7.90;5.15;;;8.00;99.90;;;;;;4991061;28;20019;-87
2023/10/25 04:09:34;;;;;;;10.05;4.55;;;8.00;99.90;;;;;;4987552;28;20033;-87
2023/10/25 04:12:00;;;;;;;10.02;5.15;;;;;;;;;;4982374;28;20010;-86
2023/10/25 04:14:26;;;;;;;8.88;4.78;;;;;;;;;;4998075;28;20027;-86
2023/10/25 04:16:52;;;;;;;10.50;5.55;;;8.00;99.90;;;;;;4974521;28;20049;-87
2023/10/25 04:19:17;;;;;;;10.63;5.60;;;8.00;99.90;;;;;;4997930;28;20022;-90
2023/10/25 04:21:43;;;;;;;11.43;6.28;;;;;;;;;;4985217;28;20129;-85
2023/10/25 04:24:09;;;;;;;11.50;6.57;;;7.90;99.90;;;;;;4984186;28;20074;-88
2023/10/25 04:26:35;;;;;;;13.48;8.02;;;;;;;;;;4981712;28;20062;-87
2023/10/25 04:29:01;;;;;;;14.38;7.90;;;;;;;;;;4981640;28;20014;-88
2023/10/25 04:31:26;;;;;;;12.20;7.28;;;7.90;99.90;;;;;;4999711;28;20018;-88
2023/10/25 04:33:52;;;;;;;11.75;6.78;;;;;;;;;;4987082;28;20091;-87
2023/10/25 04:36:18;;;;;;;10.73;6.80;;;8.50;99.90;;;;;;4979806;28;20058;-87
2023/10/25 04:38:46;;;;;;;11.45;6.43;;;;;;;;;;4982620;28;20027;-86
2023/10/25 04:41:11;;;;;;;11.35;5.68;;;;;;;;;;4999906;28;20038;-87
2023/10/25 04:43:38;;;;;;;9.60;5.20;;;;;;;;;;4983301;28;20023;-89
2023/10/25 04:46:03;;;;;;;12.05;6.45;;;8.10;99.90;;;;;;4981870;28;20011;-86
2023/10/25 04:48:30;;;;;;;9.27;5.43;;;;;;;;;;4997787;28;20021;-88
2023/10/25 04:50:55;;;;;;;12.70;6.68;;;8.10;99.90;;;;;;5003308;28;20026;-87
2023/10/25 04:53:21;;;;;;;11.82;6.03;;;10.70;99.90;;;;;;4997656;28;20054;-88
2023/10/25 04:55:47;;;;;;;9.73;6.05;;;8.20;99.90;;;;;;4975014;28;20042;-88
2023/10/25 04:58:14;;;;;;;13.07;4.72;;;8.10;99.90;;;;;;4977414;28;20035;-87
2023/10/25 05:00:42;;;;;;;7.82;4.70;;;8.10;99.90;;;;;;4979458;28;20034;-88
2023/10/25 05:03:11;;;;;;;7.28;4.40;;;8.20;99.90;;;;;;4984950;28;20018;-87
2023/10/25 05:05:40;;;;;;;9.00;5.22;;;8.10;99.90;;;;;;4998399;28;20038;-87
2023/10/25 05:08:07;;;;;;;10.55;4.53;;;8.10;99.90;;;;;;4991753;28;20033;-88
2023/10/25 05:10:34;;;;;;;7.78;4.40;;;;;;;;;;4948866;28;20050;-87
2023/10/25 05:12:59;;;;;;;6.53;4.57;;;8.10;99.90;;;;;;5000776;28;20026;-89
2023/10/25 05:15:27;;;;;;;8.77;4.45;;;8.10;99.90;;;;;;4994736;28;20040;-89
2023/10/25 05:17:53;;;;;;;9.30;4.60;;;8.10;99.90;;;;;;4980013;28;20057;-88
2023/10/25 05:20:19;;;;;;;9.50;5.22;;;8.10;99.90;;;;;;4984315;28;20015;-88
2023/10/25 05:22:50;;;;;;;9.18;4.40;;;8.10;99.90;;;;;;4987529;28;20047;-88
2023/10/25 05:25:16;;;;;;;;;;;8.10;99.90;;;;;;4985867;28;20026;-87
2023/10/25 05:27:42;;;;;;;8.05;4.63;;;8.10;99.90;;;;;;4993750;28;20340;-89
2023/10/25 05:30:09;;;;;;;9.13;5.25;;;8.10;99.90;;;;;;4997784;28;20027;-89
2023/10/25 05:32:36;;;;;;;9.20;5.10;;;8.20;99.90;;;;;;4988265;28;20103;-88
2023/10/25 05:35:05;;;;;;;10.63;4.95;;;8.10;99.90;;;;;;4986813;28;20014;-88
2023/10/25 05:37:31;;;;;;;9.93;5.47;;;8.10;99.90;;;;;;4998559;28;20055;-86
2023/10/25 05:39:57;;;;;;;10.80;5.28;;;8.20;99.90;;;;;;4986118;28;20014;-88
2023/10/25 05:42:27;;;;;;;13.55;6.50;;;8.20;99.90;;;;;;4996340;28;20034;-87
2023/10/25 05:44:56;;;;;;;11.80;7.53;;;8.20;99.90;;;;;;4980710;28;20010;-88
2023/10/25 05:47:26;;;;;;;16.17;7.25;;;8.20;99.90;;;;;;4984212;28;20038;-89
2023/10/25 05:49:52;;;;;;;11.80;7.00;;;8.30;99.90;;;;;;4985137;28;20035;-89
2023/10/25 05:52:19;;;;;;;11.80;6.50;;;8.30;99.90;;;;;;4997751;28;20029;-87
2023/10/25 05:54:45;;;;;;;14.07;7.63;;;8.40;99.90;;;;;;4989170;28;20483;-88
2023/10/25 05:57:12;;;;;;;15.15;8.13;;;8.40;99.90;;;;;;4984570;28;20040;-88
2023/10/25 05:59:42;;;;;;;15.63;8.18;;;8.40;99.90;;;;;;4975450;28;20043;-89
2023/10/25 06:02:22;;;;;;;12.90;8.10;;;8.50;99.90;;;;;;4981174;28;20039;-91
2023/10/25 06:05:13;;;;;;;10.90;7.65;;;8.50;99.90;;;;;;4986370;28;20078;-88
2023/10/25 06:07:39;;;;;;;;;;;7.90;99.90;;;;;;4981982;28;20031;-86
2023/10/25 06:10:06;;;;;;;14.15;8.18;;;8.60;99.90;;;;;;4991404;28;19922;-88
2023/10/25 06:12:32;;;;;;;12.05;7.32;;;8.70;99.90;;;;;;4990475;28;20074;-88
2023/10/25 06:14:57;;;;;;;9.32;6.63;;;8.80;99.90;;;;;;4984756;28;20037;-88
2023/10/25 06:17:23;;;;;;;13.02;5.70;;;;;;;;;;4999940;28;20054;-87
2023/10/25 06:19:52;;;;;;;8.15;5.10;;;8.90;99.90;;;;;;5000842;28;20030;-87
2023/10/25 06:22:18;;;;;;;8.70;5.78;;;10.30;99.90;;;;;;4990722;28;20083;-85
2023/10/25 06:24:43;;;;;;;11.68;5.20;;;;;;;;;;4990993;28;20697;-85
2023/10/25 06:27:09;;;;;;;9.90;5.43;;;;;;;;;;5000656;28;20038;-86
2023/10/25 06:29:35;;;;;;;7.05;4.97;;;;;;;;;;4975844;28;20515;-87
2023/10/25 06:32:01;;;;;;;8.75;5.63;;;;;;;;;;4985438;28;20093;-88
2023/10/25 06:34:27;;;;;;;6.90;4.80;;;9.10;99.90;;;;;;4992984;28;20027;-86
2023/10/25 06:36:53;;;;;;;7.22;5.07;;;9.10;99.90;;;;;;4999642;28;20070;-90
2023/10/25 06:39:19;;;;;;;7.45;5.22;;;9.10;99.90;;;;;;4984695;28;20033;-85
2023/10/25 06:41:45;;;;;;;8.23;5.28;;;9.10;99.90;;;;;;5003587;28;20037;-88
2023/10/25 06:44:11;;;;;;;7.47;5.22;;;9.20;99.90;;;;;;4988651;28;20035;-87
2023/10/25 06:46:37;;;;;;;7.55;4.57;;;9.20;99.90;;;;;;4977562;28;20046;-87
2023/10/25 06:49:03;;;;;;;6.45;4.20;;;9.30;99.90;;;;;;5001817;28;20022;-86
2023/10/25 06:51:29;;;;;;;5.55;3.88;;;9.30;99.90;;;;;;4986338;28;20044;-87
2023/10/25 06:53:55;;;;;;;6.35;4.55;;;9.40;99.90;;;;;;5003429;28;20026;-86
2023/10/25 06:56:21;;;;;;;8.38;5.15;;;9.50;99.90;;;;;;5002435;28;20030;-87
2023/10/25 06:58:48;;;;;;;7.18;5.07;;;9.40;99.90;;;;;;4990181;28;20045;-89
2023/10/25 07:01:19;;;;;;;6.50;4.80;;;9.50;99.90;;;;;;4987504;28;20028;-88
2023/10/25 07:03:47;;;;;;;7.03;4.75;;;9.60;99.90;;;;;;5005139;28;20050;-87
2023/10/25 07:06:15;;;;;;;6.47;4.63;;;9.60;99.90;;;;;;4984624;28;20041;-88
2023/10/25 07:08:41;;;;;;;7.57;4.15;;;9.60;99.90;;;;;;5002819;28;20007;-88
2023/10/25 07:11:07;;;;;;;6.60;4.65;;;;;;;;;;5006086;28;20021;-87
2023/10/25 07:13:33;;;;;;;6.45;4.30;;;;;;;;;;4987900;28;20015;-86
2023/10/25 07:16:00;;;;;;;6.18;4.00;;;;;;;;;;4978910;28;20058;-87
2023/10/25 07:18:27;;;;;;;5.68;3.85;;;9.70;99.90;;;;;;4986962;28;20043;-85
2023/10/25 07:20:53;;;;;;;5.20;3.80;;;9.70;99.90;;;;;;4984593;28;20058;-86
2023/10/25 07:23:19;;;;;;;5.18;3.80;;;9.80;99.90;;;;;;4988785;28;20041;-87
2023/10/25 07:25:45;;;;;;;7.47;4.20;;;;;;;;;;5002270;28;20026;-84
2023/10/25 07:28:13;;;;;;;6.18;3.83;;;9.80;99.90;;;;;;4989570;28;20010;-88
2023/10/25 07:30:39;;;;;;;6.05;3.65;;;10.40;99.90;;;;;;4979003;28;20030;-86
2023/10/25 07:33:06;;;;;;;5.70;3.85;;;;;;;;;;4987823;28;20014;-87
2023/10/25 07:35:32;;;;;;;5.45;3.90;;;9.90;99.90;;;;;;5008267;28;20034;-86
2023/10/25 07:37:58;;;;;;;6.85;4.13;;;10.00;99.90;;;;;;4989810;28;20034;-87
2023/10/25 07:40:24;;;;;;;6.13;3.70;;;;;;;;;;4999590;28;20172;-87
2023/10/25 07:42:49;;;;;;;6.72;4.38;;;10.00;99.90;;;;;;4996466;28;20027;-88
2023/10/25 07:45:15;;;;;;;5.38;3.90;;;12.10;99.90;;;;;;4987005;28;20027;-85
2023/10/25 07:47:41;;;;;;;6.90;3.60;;;;;;;;;;4990576;28;20023;-89
2023/10/25 07:50:07;;;;;;;7.60;4.13;;;10.10;99.90;;;;;;4989731;28;20038;-86
2023/10/25 07:52:36;;;;;;;5.38;3.58;;;10.10;99.90;;;;;;4992696;28;20025;-87
2023/10/25 07:55:05;;;;;;;4.78;3.35;;;11.20;99.90;;;;;;5005891;28;20046;-87
2023/10/25 07:57:33;;;;;;;4.55;3.22;;;10.10;99.90;;;;;;4989080;28;20037;-89
2023/10/25 07:59:59;;;;;;;5.50;3.53;;;12.60;99.90;;;;;;4992587;28;20094;-86
2023/10/25 08:02:25;;;;;;;8.55;3.80;;;;;;;;;;5004095;28;20018;-87
2023/10/25 08:04:51;;;;;;;6.30;3.85;;;;;;;;;;4988458;28;20023;-88
2023/10/25 08:07:17;;;;;;;5.88;3.72;;;10.10;99.90;;;;;;4977544;28;20019;-89
2023/10/25 08:09:44;;;;;;;4.50;3.47;;;;;;;;;;5007309;28;20026;-89
2023/10/25 08:12:10;;;;;;;5.45;3.38;;;10.20;99.90;;;;;;5000177;28;20030;-87
2023/10/25 08:14:36;;;;;;;5.18;3.55;;;;;;;;;;4989822;28;20022;-89
2023/10/25 08:17:02;;;;;;;5.90;3.80;;;10.30;99.90;;;;;;4989687;28;20037;-89
2023/10/25 08:19:29;;;;;;;9.57;4.28;;;10.30;99.90;;;;;;5004711;28;20085;-87
2023/10/25 08:21:55;;;;;;;7.18;4.00;;;;;;;;;;4989754;28;20091;-89
2023/10/25 08:24:21;;;;;;;6.00;3.25;;;;;;;;;;5002882;28;20703;-89
2023/10/25 08:26:46;;;;;;;5.68;3.80;;;10.30;99.90;;;;;;4983324;28;20038;-88
2023/10/25 08:29:12;;;;;;;5.63;3.50;;;;;;;;;;4990866;28;20022;-87
2023/10/25 08:31:38;;;;;;;6.13;3.80;;;10.40;99.90;;;;;;4985791;28;20025;-89
2023/10/25 08:34:05;;;;;;;5.60;3.63;;;10.40;99.90;;;;;;4984457;28;20110;-89
2023/10/25 08:36:31;;;;;;;9.07;4.05;;;12.90;99.90;;;;;;4991921;28;20026;-88
2023/10/25 08:38:58;;;;;;;4.28;3.13;;;10.40;99.90;;;;;;4987228;28;20225;-90
2023/10/25 08:41:28;;;;;;;7.22;3.72;;;11.00;99.90;;;;;;4993523;28;20037;-86
2023/10/25 08:43:54;;;;;;;5.75;3.75;;;12.10;99.90;;;;;;5002169;28;20023;-88
2023/10/25 08:46:20;;;;;;;6.93;3.90;;;10.40;99.90;;;;;;4991206;28;20051;-86
2023/10/25 08:48:47;;;;;;;5.40;3.30;;;10.40;99.90;;;;;;5007881;28;20030;-88
2023/10/25 08:51:14;;;;;;;5.90;3.40;;;12.40;99.90;;;;;;5001717;28;20042;-86
2023/10/25 08:53:41;;;;;;;5.20;3.60;;;12.50;99.90;;;;;;5005782;28;20026;-88
2023/10/25 08:56:08;;;;;;;7.53;3.70;;;10.10;99.90;;;;;;4990528;28;20052;-87
2023/10/25 08:58:35;;;;;;;4.63;3.30;;;9.50;99.90;;;;;;4990167;28;20022;-88
2023/10/25 09:01:01;;;;;;;6.00;3.50;;;10.50;99.90;;;;;;5005453;28;20049;-85
2023/10/25 09:03:32;;;;;;;4.90;3.00;;;10.50;99.90;;;;;;4999204;28;20022;-88
2023/10/25 09:05:58;;;;;;;5.70;3.90;;;12.40;99.90;;;;;;4998990;28;20022;-88
2023/10/25 09:08:24;;;;;;;7.18;3.67;;;;;;;;;;4983994;28;20034;-86
2023/10/25 09:11:16;;;;;;;8.43;4.18;;;10.60;99.90;;;;;;5002839;28;20014;-89
2023/10/25 09:13:42;;;;;;;8.32;3.70;;;;;;;;;;4985802;28;20022;-87
2023/10/25 09:16:10;;;;;;;5.82;3.20;;;10.70;99.90;;;;;;4989320;28;20026;-86
2023/10/25 09:18:37;;;;;;;6.40;3.53;;;10.70;99.90;;;;;;4990867;28;20029;-89
2023/10/25 09:21:04;;;;;;;5.68;3.63;;;10.80;99.90;;;;;;4986915;28;20018;-89
2023/10/25 09:23:33;;;;;;;5.50;3.65;;;12.50;99.90;;;;;;4988168;28;20050;-89
2023/10/25 09:26:00;;;;;;;4.40;2.92;;;11.00;99.90;;;;;;4992130;28;20066;-87
2023/10/25 09:28:28;;;;;;;4.90;3.33;;;12.40;99.90;;;;;;4965372;28;20029;-89
2023/10/25 09:30:55;;;;;;;4.25;2.90;;;10.80;99.90;;;;;;4989504;28;20026;-86
2023/10/25 09:33:22;;;;;;;5.40;4.00;;;10.80;99.90;;;;;;5003257;28;20132;-87
2023/10/25 09:35:48;;;;;;;5.53;3.42;;;10.90;99.90;;;;;;5000141;28;20098;-89
2023/10/25 09:38:14;;;;;;;5.70;2.95;;;11.20;99.90;;;;;;4988259;28;20098;-89
2023/10/25 09:40:41;;;;;;;4.07;2.75;;;10.90;99.90;;;;;;5000126;28;20027;-86
2023/10/25 09:43:24;;;;;;;5.28;2.95;;;10.90;99.90;;;;;;4982765;28;20041;-88
2023/10/25 09:45:54;;;;;;;4.10;3.00;;;11.10;99.90;;;;;;5005189;28;20022;-86
2023/10/25 09:48:20;;;;;;;5.35;2.67;;;11.10;99.90;;;;;;4985363;28;20110;-88
2023/10/25 09:51:10;;;;;;;3.70;2.53;;;12.70;99.90;;;;;;5005392;28;20027;-89
2023/10/25 09:53:46;;;;;;;4.40;2.85;;;11.10;99.90;;;;;;4981066;28;20098;-86
2023/10/25 09:56:13;;;;;;;6.65;3.03;;;13.70;99.90;;;;;;4999487;28;20049;-88
2023/10/25 09:58:39;;;;;;;7.43;3.22;;;11.20;99.90;;;;;;5008422;28;20118;-89
2023/10/25 10:01:06;;;;;;;4.82;2.63;;;11.20;99.90;;;;;;4995394;28;20035;-87
2023/10/25 10:03:46;;;;;;;5.07;2.67;;;11.20;99.90;;;;;;5002442;28;20030;-87
2023/10/25 10:06:37;;;;;;;5.32;2.47;;;12.30;99.90;;;;;;4989753;28;20011;-90
2023/10/25 10:09:09;;;;;;;6.07;2.50;;;12.10;99.90;;;;;;4990067;28;20216;-89
2023/10/25 10:11:43;;;;;;;4.47;2.67;;;11.20;99.90;;;;;;5002556;28;20030;-86
2023/10/25 10:14:34;;;;;;;3.00;2.22;;;11.30;99.90;;;;;;4992958;28;20093;-88
2023/10/25 10:17:11;;;;;;;3.25;2.05;;;11.30;99.90;;;;;;4988772;28;20094;-86
2023/10/25 10:19:39;;;;;;;4.13;2.38;;;10.30;99.90;;;;;;4991756;28;20018;-87
2023/10/25 10:22:13;;;;;;;5.55;3.15;;;11.40;99.90;;;;;;4991503;28;20086;-87
2023/10/25 10:24:43;;;;;;;4.47;2.30;;;11.50;99.90;;;;;;5011873;28;20022;-88
2023/10/25 10:27:10;;;;;;;5.38;2.95;;;11.50;99.90;;;;;;5005844;28;20023;-87
2023/10/25 10:29:36;;;;;;;5.55;2.72;;;11.60;99.90;;;;;;4993521;28;20026;-87
2023/10/25 10:32:03;;;;;;;7.85;2.58;;;11.50;99.90;;;;;;4994640;28;20015;-88
2023/10/25 10:34:46;;;;;;;4.85;2.67;;;11.60;99.90;;;;;;4987577;28;20042;-89
2023/10/25 10:37:17;;;;;;;4.38;2.67;;;11.50;99.90;;;;;;4990293;28;20490;-87
2023/10/25 10:39:58;;;;;;;4.75;2.20;;;12.30;99.90;;;;;;4993833;28;20027;-88
2023/10/25 10:42:32;;;;;;;7.13;3.45;;;13.40;99.90;;;;;;5002357;28;20035;-86
2023/10/25 10:44:59;;;;;;;5.40;3.40;;;11.60;99.90;;;;;;5004716;28;20100;-88
2023/10/25 10:47:55;;;;;;;5.32;2.60;;;12.60;99.90;;;;;;4970093;28;20010;-87
2023/10/25 10:50:23;;;;;;;4.72;2.50;;;11.60;99.90;;;;;;4987759;28;20029;-88
2023/10/25 10:52:50;;;;;;;3.63;2.50;;;11.50;99.90;;;;;;5003374;28;20042;-89
2023/10/25 10:55:20;;;;;;;5.60;2.50;;;12.60;99.90;;;;;;4989658;28;20015;-87
2023/10/25 10:57:46;;;;;;;;;;;10.80;99.90;;;;;;5001913;28;20081;-87
2023/10/25 11:00:16;;;;;;;3.55;2.38;;;11.60;99.90;;;;;;5013169;23;19937;-88
2023/10/25 11:02:45;;;;;;;7.07;2.93;;;11.60;99.90;;;;;;5016945;28;20026;-87
2023/10/25 11:05:14;;;;;;;4.57;2.50;;;9.10;99.90;;;;;;5018971;28;20269;-89
2023/10/25 11:07:40;;;;;;;2.92;2.15;;;13.30;99.90;;;;;;5016961;28;20073;-87
2023/10/25 11:10:18;;;;;;;3.53;2.00;;;11.60;99.90;;;;;;5011480;28;20022;-85
2023/10/25 11:12:45;;;;;;;4.03;2.45;;;;;;;;;;5012845;28;20061;-86
2023/10/25 11:15:12;;;;;;;3.55;2.10;;;11.60;99.90;;;;;;5017900;28;20034;-89
2023/10/25 11:17:38;;;;;;;3.03;2.20;;;13.50;99.90;;;;;;5015266;28;20160;-85
2023/10/25 11:20:05;;;;;;;5.43;2.97;;;11.70;99.90;;;;;;5016717;28;20026;-84
2023/10/25 11:22:31;;;;;;;4.13;2.25;;;;;;;;;;5018163;28;20026;-88
2023/10/25 11:25:01;;;;;;;3.65;2.40;;;11.80;99.90;;;;;;5019562;28;20030;-89
2023/10/25 11:27:31;;;;;;;6.15;2.92;;;11.90;99.90;;;;;;5014177;28;20045;-88
2023/10/25 11:30:00;;;;;;;4.28;2.08;;;12.00;99.90;;;;;;5015889;28;20041;-88
2023/10/25 11:32:34;;;;;;;3.70;1.60;;;12.10;99.90;;;;;;5013871;28;20025;-87
2023/10/25 11:35:00;;;;;;;3.08;1.25;;;;;;;;;;5017988;28;20061;-85
2023/10/25 11:37:58;;;;;;;2.40;1.25;;;12.20;99.90;;;;;;5015139;28;20029;-87
2023/10/25 11:40:45;;;;;;;5.28;1.55;;;12.40;99.90;;;;;;5021769;28;20026;-89
2023/10/25 11:43:11;;;;;;;2.78;1.33;;;;;;;;;;5026888;28;20085;-87
2023/10/25 11:45:37;;;;;;;2.58;1.15;;;;;;;;;;5021546;28;20095;-87
2023/10/25 11:48:04;;;;;;;1.42;0.98;;;;;;;;;;5014290;28;20164;-88
2023/10/25 11:50:30;;;;;;;2.00;1.17;;;;;;;;;;5018072;28;20033;-89
2023/10/25 11:52:58;;;;;;;1.40;0.90;;;;;;;;;;5028033;28;20026;-88
2023/10/25 11:55:36;;;;;;;3.15;1.20;;;12.70;99.90;;;;;;5026818;28;20085;-88
2023/10/25 11:58:03;;;;;;;2.90;1.10;;;12.70;99.90;;;;;;5018709;28;20070;-89
2023/10/25 12:00:31;;;;;;;1.73;0.90;;;12.80;99.90;;;;;;5016822;28;20029;-88
2023/10/25 12:03:05;;;;;;;3.17;1.10;;;12.80;99.90;;;;;;5015772;28;20036;-88
2023/10/25 12:05:31;;;;;;;2.08;1.00;;;15.60;99.90;;;;;;5015138;28;20022;-89
2023/10/25 12:07:57;;;;;;;2.70;1.45;;;;;;;;;;5011345;28;20114;-86
2023/10/25 12:10:27;;;;;;;1.55;1.00;;;12.90;99.90;;;;;;5013667;28;20026;-87
2023/10/25 12:12:53;;;;;;;1.73;1.00;;;;;;;;;;5014310;28;20038;-87
2023/10/25 12:15:19;;;;;;;1.60;0.90;;;;;;;;;;5016325;28;20029;-84
2023/10/25 12:17:55;;;;;;;1.05;0.90;;;13.00;99.90;;;;;;5011835;28;20129;-86
2023/10/25 12:20:32;;;;;;;2.03;0.90;;;13.00;99.90;;;;;;5011008;28;20093;-88
2023/10/25 12:23:01;;;;;;;1.05;0.80;;;;;;;;;;5015207;28;20030;-88
2023/10/25 12:25:49;;;;;;;1.70;0.90;;;13.10;99.90;;;;;;5009601;28;20121;-87
2023/10/25 12:28:15;;;;;;;1.77;0.98;;;;;;;;;;5016979;28;20042;-84
2023/10/25 12:30:44;;;;;;;1.35;0.90;;;;;;;;;;5016932;28;20030;-89
2023/10/25 12:33:13;;;;;;;0.88;0.70;;;;;;;;;;5011993;28;20022;-89
2023/10/25 12:35:39;;;;;;;1.48;0.80;;;13.20;99.90;;;;;;5008064;28;20022;-87
2023/10/25 12:38:12;;;;;;;1.30;0.90;;;;;;;;;;5016771;28;20029;-89
2023/10/25 12:41:08;;;;;;;1.63;0.90;;;13.00;99.90;;;;;;5016892;28;20388;-88
2023/10/25 12:43:51;;;;;;;2.30;1.08;;;13.10;99.90;;;;;;5011143;28;20049;-88
2023/10/25 12:46:17;;;;;;;1.67;0.85;;;13.00;99.90;;;;;;5013930;28;21540;-87
2023/10/25 12:48:46;;;;;;;1.13;0.80;;;13.20;99.90;;;;;;5015279;28;20057;-87
2023/10/25 12:51:37;;;;;;;1.60;0.95;;;13.10;99.90;;;;;;5012200;28;20033;-87
2023/10/25 12:54:05;;;;;;;1.40;0.90;;;12.70;99.90;;;;;;5007079;28;20033;-86
2023/10/25 12:56:31;;;;;;;1.80;1.00;;;13.10;99.90;;;;;;5011355;28;20025;-88
2023/10/25 12:58:57;;;;;;;2.63;0.95;;;14.20;99.90;;;;;;5008988;28;20041;-87
2023/10/25 13:01:23;;;;;;;1.55;0.80;;;;;;;;;;4992467;28;20168;-87
2023/10/25 13:03:50;;;;;;;1.10;0.88;;;13.20;99.90;;;;;;5009539;28;20452;-89
2023/10/25 13:06:15;;;;;;;2.67;0.90;;;12.00;99.90;;;;;;5008642;28;20022;-88
2023/10/25 13:08:41;;;;;;;2.60;1.00;;;13.20;99.90;;;;;;5006453;28;20036;-87
2023/10/25 13:11:07;;;;;;;1.67;0.88;;;15.50;99.90;;;;;;5008174;28;20034;-89
2023/10/25 13:13:33;;;;;;;2.17;0.85;;;;;;;;;;5010683;28;20037;-85
2023/10/25 13:15:59;;;;;;;2.17;1.00;;;;;;;;;;5006414;28;20033;-89
2023/10/25 13:18:25;;;;;;;2.53;1.00;;;;;;;;;;5007605;28;20026;-88
2023/10/25 13:20:51;;;;;;;3.70;0.98;;;;;;;;;;5007032;28;20034;-87